createdAt,value
2019-05-09T00:01:35.626Z,8.90
2019-05-09T00:03:39.376Z,8.43
2019-05-09T00:05:44.081Z,9.45
2019-05-09T00:07:48.007Z,9.18
2019-05-09T00:09:53.365Z,8.55
2019-05-09T00:11:57.327Z,9.15
2019-05-09T00:14:00.951Z,8.78
2019-05-09T00:16:04.641Z,8.90
2019-05-09T00:18:08.423Z,8.78
2019-05-09T00:20:33.068Z,7.72
2019-05-09T00:22:36.634Z,8.13
2019-05-09T00:24:40.261Z,7.97
2019-05-09T00:26:44.374Z,7.97
2019-05-09T00:28:53.337Z,7.50
2019-05-09T00:31:13.530Z,7.03
2019-05-09T00:33:18.531Z,7.28
2019-05-09T00:35:27.774Z,6.83
2019-05-09T00:37:49.462Z,7.17
2019-05-09T00:39:53.366Z,5.90
2019-05-09T00:41:57.269Z,4.80
2019-05-09T00:44:07.105Z,5.85
2019-05-09T00:46:23.631Z,5.62
2019-05-09T00:48:53.322Z,5.30
2019-05-09T00:50:57.330Z,5.12
2019-05-09T00:53:03.033Z,5.45
2019-05-09T00:55:06.471Z,5.50
2019-05-09T00:57:13.744Z,5.47
2019-05-09T00:59:17.517Z,5.70
2019-05-09T01:01:21.231Z,6.12
2019-05-09T01:03:24.847Z,6.20
2019-05-09T01:05:28.486Z,6.03
2019-05-09T01:07:33.638Z,6.65
2019-05-09T01:09:37.491Z,5.92
2019-05-09T01:11:41.234Z,6.92
2019-05-09T01:13:44.923Z,6.78
2019-05-09T01:15:48.566Z,7.15
2019-05-09T01:17:53.633Z,6.70
2019-05-09T01:19:58.379Z,6.90
2019-05-09T01:22:03.766Z,6.65
2019-05-09T01:24:07.337Z,7.50
2019-05-09T01:26:13.041Z,6.97
2019-05-09T01:28:16.329Z,7.10
2019-05-09T01:30:20.265Z,7.42
2019-05-09T01:32:43.333Z,8.38
2019-05-09T01:34:47.240Z,7.70
2019-05-09T01:37:10.923Z,7.90
2019-05-09T01:39:14.513Z,7.37
2019-05-09T01:41:28.063Z,7.92
2019-05-09T01:43:24.360Z,8.13
2019-05-09T01:45:28.261Z,8.35
2019-05-09T01:47:34.043Z,8.98
2019-05-09T01:49:37.253Z,8.50
2019-05-09T01:51:40.982Z,9.00
2019-05-09T01:53:50.324Z,9.60
2019-05-09T01:56:00.194Z,9.10
2019-05-09T01:58:03.888Z,9.85
2019-05-09T02:00:07.652Z,9.60
2019-05-09T02:02:11.340Z,9.30
2019-05-09T02:04:15.093Z,9.60
2019-05-09T02:06:18.710Z,9.90
2019-05-09T02:08:23.598Z,9.80
2019-05-09T02:10:27.624Z,10.48
2019-05-09T02:12:31.314Z,10.18
2019-05-09T02:14:44.398Z,10.68
2019-05-09T02:16:55.773Z,10.25
2019-05-09T02:19:24.097Z,10.78
2019-05-09T02:21:27.727Z,11.48
2019-05-09T02:23:31.358Z,11.50
2019-05-09T02:25:35.070Z,11.43
2019-05-09T02:27:38.776Z,11.03
2019-05-09T02:29:43.996Z,11.80
2019-05-09T02:31:47.688Z,10.75
2019-05-09T02:33:53.867Z,11.40
2019-05-09T02:36:01.327Z,10.82
2019-05-09T02:38:02.092Z,10.55
2019-05-09T02:40:09.272Z,10.38
2019-05-09T02:42:14.137Z,10.58
2019-05-09T02:44:19.467Z,10.05
2019-05-09T02:46:29.398Z,10.15
2019-05-09T02:48:33.241Z,10.38
2019-05-09T02:50:38.539Z,10.53
2019-05-09T02:52:42.306Z,10.00
2019-05-09T02:54:49.689Z,10.90
2019-05-09T02:56:51.388Z,11.68
2019-05-09T02:59:01.828Z,11.63
2019-05-09T03:01:13.419Z,11.55
2019-05-09T03:03:23.800Z,12.53
2019-05-09T03:05:29.711Z,12.25
2019-05-09T03:07:51.189Z,12.90
2019-05-09T03:09:54.886Z,11.57
2019-05-09T03:11:59.280Z,11.75
2019-05-09T03:14:04.319Z,11.28
2019-05-09T03:16:13.679Z,11.25
2019-05-09T03:18:18.436Z,11.03
2019-05-09T03:20:50.808Z,10.60
2019-05-09T03:22:54.532Z,10.48
2019-05-09T03:24:58.902Z,11.40
2019-05-09T03:27:08.576Z,9.83
2019-05-09T03:29:29.227Z,10.10
2019-05-09T03:31:34.512Z,9.90
2019-05-09T03:33:40.479Z,10.70
2019-05-09T03:35:43.612Z,10.72
2019-05-09T03:37:49.696Z,9.58
2019-05-09T03:39:53.401Z,9.73
2019-05-09T03:41:57.533Z,9.60
2019-05-09T03:44:01.334Z,10.32
2019-05-09T03:46:24.105Z,9.73
2019-05-09T03:48:33.433Z,9.25
2019-05-09T03:50:38.309Z,9.88
2019-05-09T03:52:42.100Z,8.53
2019-05-09T03:54:47.668Z,8.08
2019-05-09T03:56:57.308Z,8.43
2019-05-09T03:59:00.978Z,7.92
2019-05-09T04:01:04.671Z,7.67
2019-05-09T04:03:08.393Z,6.90
2019-05-09T04:05:12.079Z,8.00
2019-05-09T04:07:15.767Z,7.67
2019-05-09T04:09:19.387Z,7.12
2019-05-09T04:11:23.072Z,7.25
2019-05-09T04:13:40.563Z,7.37
2019-05-09T04:15:44.270Z,7.55
2019-05-09T04:17:47.891Z,7.35
2019-05-09T04:19:51.846Z,7.10
2019-05-09T04:21:57.391Z,6.20
2019-05-09T04:24:00.943Z,7.45
2019-05-09T04:26:10.094Z,6.45
2019-05-09T04:28:13.726Z,6.10
2019-05-09T04:30:18.333Z,4.83
2019-05-09T04:32:22.040Z,5.60
2019-05-09T04:34:27.577Z,5.00
2019-05-09T04:36:40.065Z,5.17
2019-05-09T04:38:43.735Z,5.33
2019-05-09T04:40:48.787Z,5.25
2019-05-09T04:42:52.656Z,5.15
2019-05-09T04:45:03.526Z,4.83
2019-05-09T04:47:08.912Z,4.50
2019-05-09T04:49:12.641Z,4.42
2019-05-09T04:51:18.032Z,4.90
2019-05-09T04:53:21.833Z,4.65
2019-05-09T04:55:30.485Z,4.35
2019-05-09T04:57:34.105Z,4.15
2019-05-09T04:59:39.691Z,4.65
2019-05-09T05:01:53.028Z,4.50
2019-05-09T05:03:57.397Z,3.02
2019-05-09T05:06:01.413Z,3.22
2019-05-09T05:08:05.055Z,3.08
2019-05-09T05:10:09.162Z,2.70
2019-05-09T05:12:12.895Z,2.98
2019-05-09T05:14:22.443Z,2.70
2019-05-09T05:16:27.399Z,2.95
2019-05-09T05:18:31.223Z,3.10
2019-05-09T05:20:34.945Z,3.00
2019-05-09T05:22:47.790Z,2.75
2019-05-09T05:25:02.655Z,2.80
2019-05-09T05:27:08.255Z,2.70
2019-05-09T05:29:11.819Z,2.90
2019-05-09T05:31:17.901Z,2.70
2019-05-09T05:33:38.288Z,2.47
2019-05-09T05:35:57.413Z,2.50
2019-05-09T05:38:01.267Z,2.20
2019-05-09T05:40:07.762Z,2.40
2019-05-09T05:42:11.739Z,2.80
2019-05-09T05:44:17.635Z,2.37
2019-05-09T05:46:39.896Z,2.50
2019-05-09T05:48:44.215Z,2.20
2019-05-09T05:50:48.729Z,2.27
2019-05-09T05:52:52.661Z,2.25
2019-05-09T05:54:58.211Z,2.20
2019-05-09T05:57:01.818Z,2.40
2019-05-09T05:59:05.425Z,2.65
2019-05-09T06:01:09.032Z,2.58
2019-05-09T06:03:12.686Z,2.35
2019-05-09T06:05:18.460Z,2.42
2019-05-09T06:07:21.763Z,2.45
2019-05-09T06:09:27.853Z,2.47
2019-05-09T06:11:30.849Z,1.87
2019-05-09T06:13:34.555Z,2.33
2019-05-09T06:15:38.178Z,2.20
2019-05-09T06:17:41.833Z,1.82
2019-05-09T06:19:48.023Z,2.25
2019-05-09T06:21:52.330Z,2.02
2019-05-09T06:23:58.452Z,2.08
2019-05-09T06:26:02.955Z,2.35
2019-05-09T06:28:07.692Z,2.15
2019-05-09T06:30:12.297Z,1.60
2019-05-09T06:32:18.638Z,1.87
2019-05-09T06:34:21.471Z,1.80
2019-05-09T06:36:25.108Z,1.60
2019-05-09T06:38:28.821Z,1.62
2019-05-09T06:40:32.611Z,1.70
2019-05-09T06:42:38.053Z,1.55
2019-05-09T06:44:51.413Z,1.87
2019-05-09T06:47:00.613Z,1.80
2019-05-09T06:49:26.697Z,1.92
2019-05-09T06:51:14.207Z,1.90
2019-05-09T06:53:18.251Z,1.57
2019-05-09T06:55:22.021Z,1.57
2019-05-09T06:57:28.036Z,1.70
2019-05-09T06:59:31.060Z,1.60
2019-05-09T07:01:40.048Z,1.90
2019-05-09T07:03:44.143Z,1.77
2019-05-09T07:06:09.759Z,1.72
2019-05-09T07:08:22.064Z,1.60
2019-05-09T07:10:25.689Z,1.60
2019-05-09T07:12:29.394Z,1.57
2019-05-09T07:14:41.273Z,1.77
2019-05-09T07:16:41.800Z,1.40
2019-05-09T07:18:45.445Z,1.45
2019-05-09T07:20:49.088Z,1.47
2019-05-09T07:22:58.332Z,1.52
2019-05-09T07:25:09.934Z,1.85
2019-05-09T07:27:10.542Z,1.50
2019-05-09T07:29:14.234Z,1.40
2019-05-09T07:31:30.977Z,1.12
2019-05-09T07:34:03.104Z,1.52
2019-05-09T07:36:08.547Z,1.35
2019-05-09T07:38:12.254Z,1.40
2019-05-09T07:40:18.021Z,1.27
2019-05-09T07:42:21.238Z,1.20
2019-05-09T07:44:24.820Z,1.22
2019-05-09T07:46:29.909Z,1.30
2019-05-09T07:48:33.935Z,1.55
2019-05-09T07:50:38.899Z,1.50
2019-05-09T07:52:42.855Z,1.27
2019-05-09T07:54:48.319Z,1.50
2019-05-09T07:56:51.831Z,1.57
2019-05-09T07:58:55.543Z,1.45
2019-05-09T08:01:01.533Z,1.10
2019-05-09T08:03:04.535Z,1.30
2019-05-09T08:05:08.645Z,1.17
2019-05-09T08:07:12.498Z,1.30
2019-05-09T08:09:18.503Z,1.70
2019-05-09T08:11:21.614Z,1.30
2019-05-09T08:13:25.252Z,1.70
2019-05-09T08:15:28.947Z,1.55
2019-05-09T08:17:32.550Z,1.95
2019-05-09T08:19:38.065Z,1.30
2019-05-09T08:21:41.630Z,1.50
2019-05-09T08:23:45.250Z,1.42
2019-05-09T08:25:48.957Z,1.70
2019-05-09T08:27:52.691Z,1.80
2019-05-09T08:29:58.337Z,1.20
2019-05-09T08:32:02.034Z,1.50
2019-05-09T08:34:08.143Z,1.47
2019-05-09T08:36:11.124Z,1.70
2019-05-09T08:38:14.741Z,1.55
2019-05-09T08:40:21.422Z,1.50
2019-05-09T08:42:23.796Z,1.45
2019-05-09T08:44:30.215Z,1.25
2019-05-09T08:46:32.862Z,1.02
2019-05-09T08:48:37.870Z,1.20
2019-05-09T08:50:55.448Z,1.20
2019-05-09T08:52:59.181Z,1.47
2019-05-09T08:55:02.943Z,1.52
2019-05-09T08:57:07.672Z,1.90
2019-05-09T08:59:11.499Z,1.40
2019-05-09T09:01:27.182Z,1.50
2019-05-09T09:03:20.576Z,1.10
2019-05-09T09:05:24.254Z,1.25
2019-05-09T09:07:29.760Z,1.45
2019-05-09T09:09:33.175Z,1.12
2019-05-09T09:11:38.537Z,1.37
2019-05-09T09:13:42.089Z,1.40
2019-05-09T09:16:04.813Z,1.40
2019-05-09T09:17:51.065Z,1.20
2019-05-09T09:19:54.729Z,1.45
2019-05-09T09:22:00.637Z,1.57
2019-05-09T09:24:03.655Z,1.65
2019-05-09T09:26:08.017Z,1.55
2019-05-09T09:28:11.978Z,1.62
2019-05-09T09:30:21.795Z,1.55
2019-05-09T09:32:20.997Z,1.10
2019-05-09T09:34:27.167Z,1.12
2019-05-09T09:36:29.968Z,1.20
2019-05-09T09:38:33.554Z,1.15
2019-05-09T09:40:38.495Z,0.90
2019-05-09T09:42:42.441Z,1.40
2019-05-09T09:44:48.031Z,1.40
2019-05-09T09:46:51.404Z,1.10
2019-05-09T09:48:55.084Z,1.60
2019-05-09T09:50:58.988Z,1.40
2019-05-09T09:53:02.673Z,1.27
2019-05-09T09:55:09.008Z,1.40
2019-05-09T09:57:12.353Z,1.07
2019-05-09T09:59:37.860Z,1.50
2019-05-09T10:01:42.129Z,1.62
2019-05-09T10:03:47.397Z,1.40
2019-05-09T10:05:51.129Z,1.40
2019-05-09T10:07:54.781Z,1.52
2019-05-09T10:09:58.589Z,1.37
2019-05-09T10:12:02.361Z,1.37
2019-05-09T10:14:07.933Z,1.10
2019-05-09T10:16:33.501Z,1.22
2019-05-09T10:18:51.059Z,1.12
2019-05-09T10:20:58.691Z,1.10
2019-05-09T10:23:11.254Z,1.20
2019-05-09T10:25:07.900Z,1.30
2019-05-09T10:27:13.472Z,1.10
2019-05-09T10:29:17.724Z,1.40
2019-05-09T10:31:21.558Z,1.45
2019-05-09T10:33:25.225Z,1.12
2019-05-09T10:35:28.805Z,1.00
2019-05-09T10:37:32.425Z,1.20
2019-05-09T10:39:38.121Z,1.15
2019-05-09T10:41:41.409Z,1.22
2019-05-09T10:44:04.104Z,1.22
2019-05-09T10:46:28.391Z,1.15
2019-05-09T10:48:31.057Z,1.10
2019-05-09T10:50:35.174Z,0.80
2019-05-09T10:52:38.939Z,1.20
2019-05-09T10:54:42.547Z,1.10
2019-05-09T10:56:48.560Z,1.12
2019-05-09T10:58:51.485Z,1.10
2019-05-09T11:00:55.042Z,0.90
2019-05-09T11:02:58.715Z,1.22
2019-05-09T11:05:02.305Z,1.30
2019-05-09T11:07:08.055Z,1.07
2019-05-09T11:09:11.266Z,0.90
2019-05-09T11:11:14.909Z,1.10
2019-05-09T11:13:18.607Z,1.00
2019-05-09T11:15:22.195Z,0.90
2019-05-09T11:17:25.767Z,1.10
2019-05-09T11:19:29.368Z,1.15
2019-05-09T11:21:33.432Z,1.00
2019-05-09T11:23:39.147Z,1.37
2019-05-09T11:25:42.589Z,1.00
2019-05-09T11:27:48.542Z,1.30
2019-05-09T11:29:51.445Z,1.25
2019-05-09T11:31:55.055Z,1.22
2019-05-09T11:33:58.656Z,1.15
2019-05-09T11:36:02.248Z,1.00
2019-05-09T11:38:08.149Z,1.15
2019-05-09T11:40:11.451Z,1.10
2019-05-09T11:42:14.986Z,1.32
2019-05-09T11:44:19.431Z,1.37
2019-05-09T11:46:23.022Z,1.27
2019-05-09T11:48:28.361Z,1.20
2019-05-09T11:50:31.921Z,0.95
2019-05-09T11:52:38.090Z,1.07
2019-05-09T11:54:40.878Z,0.90
2019-05-09T11:56:44.452Z,1.45
2019-05-09T11:58:48.503Z,1.20
2019-05-09T12:00:52.176Z,1.10
2019-05-09T12:02:57.964Z,1.17
2019-05-09T12:05:01.084Z,1.10
2019-05-09T12:07:04.661Z,1.12
2019-05-09T12:09:09.828Z,1.40
2019-05-09T12:11:13.478Z,1.30
2019-05-09T12:13:18.621Z,1.10
2019-05-09T12:15:22.485Z,1.12
2019-05-09T12:17:26.133Z,1.40
2019-05-09T12:19:29.799Z,1.15
2019-05-09T12:21:33.459Z,1.20
2019-05-09T12:23:37.814Z,1.67
2019-05-09T12:25:41.549Z,1.20
2019-05-09T12:27:45.221Z,1.15
2019-05-09T12:29:48.875Z,1.35
2019-05-09T12:31:52.529Z,1.30
2019-05-09T12:33:58.836Z,1.12
2019-05-09T12:36:01.453Z,1.17
2019-05-09T12:38:05.410Z,1.20
2019-05-09T12:40:09.011Z,1.22
2019-05-09T12:42:12.582Z,1.87
2019-05-09T12:44:18.258Z,1.45
2019-05-09T12:46:21.473Z,1.35
2019-05-09T12:48:27.679Z,1.30
2019-05-09T12:50:30.395Z,1.20
2019-05-09T12:52:34.000Z,1.27
2019-05-09T12:54:38.661Z,1.32
2019-05-09T12:56:42.588Z,1.25
2019-05-09T12:58:47.753Z,1.30
2019-05-09T13:00:52.027Z,1.50
2019-05-09T13:02:55.703Z,1.20
2019-05-09T13:04:59.262Z,1.22
2019-05-09T13:07:02.924Z,1.32
2019-05-09T13:09:08.323Z,1.20
2019-05-09T13:11:12.232Z,1.15
2019-05-09T13:13:18.433Z,0.90
2019-05-09T13:15:24.323Z,1.25
2019-05-09T13:17:40.181Z,1.40
2019-05-09T13:19:47.953Z,1.05
2019-05-09T13:21:51.895Z,1.25
2019-05-09T13:23:58.569Z,1.07
2019-05-09T13:26:00.977Z,1.12
2019-05-09T13:28:04.652Z,1.25
2019-05-09T13:30:09.208Z,1.52
2019-05-09T13:32:12.804Z,1.37
2019-05-09T13:34:18.733Z,1.27
2019-05-09T13:36:21.863Z,1.02
2019-05-09T13:38:27.699Z,1.10
2019-05-09T13:40:30.920Z,1.40
2019-05-09T13:42:34.602Z,1.40
2019-05-09T13:44:41.310Z,1.22
2019-05-09T13:46:43.608Z,1.12
2019-05-09T13:49:06.222Z,1.00
2019-05-09T13:50:52.662Z,1.30
2019-05-09T13:52:58.165Z,0.95
2019-05-09T13:55:01.687Z,1.32
2019-05-09T13:57:05.447Z,1.20
2019-05-09T13:59:09.185Z,1.30
2019-05-09T14:01:12.922Z,1.35
2019-05-09T14:03:18.100Z,1.10
2019-05-09T14:05:21.869Z,1.12
2019-05-09T14:07:27.764Z,1.02
2019-05-09T14:09:30.835Z,0.98
2019-05-09T14:11:34.447Z,1.15
2019-05-09T14:13:38.474Z,1.25
2019-05-09T14:15:44.077Z,1.20
2019-05-09T14:17:52.635Z,1.15
2019-05-09T14:19:53.249Z,1.00
2019-05-09T14:21:58.539Z,1.12
2019-05-09T14:24:12.210Z,0.90
2019-05-09T14:26:09.493Z,0.88
2019-05-09T14:28:13.258Z,0.93
2019-05-09T14:30:16.896Z,0.93
2019-05-09T14:32:20.485Z,1.32
2019-05-09T14:34:24.216Z,1.47
2019-05-09T14:36:27.926Z,1.17
2019-05-09T14:38:31.654Z,1.10
2019-05-09T14:40:37.181Z,1.07
2019-05-09T14:42:40.870Z,1.27
2019-05-09T14:44:47.241Z,1.00
2019-05-09T14:46:50.453Z,1.10
2019-05-09T14:48:54.215Z,0.90
2019-05-09T14:50:58.375Z,1.25
2019-05-09T14:53:02.253Z,0.93
2019-05-09T14:55:08.225Z,1.15
2019-05-09T14:57:11.720Z,1.20
2019-05-09T14:59:15.393Z,1.00
2019-05-09T15:01:19.507Z,1.20
2019-05-09T15:03:23.338Z,20.17
2019-05-09T15:05:27.889Z,0.88
2019-05-09T15:07:31.742Z,0.90
2019-05-09T15:09:35.503Z,0.70
2019-05-09T15:11:39.861Z,0.80
2019-05-09T15:13:43.703Z,0.57
2019-05-09T15:15:48.044Z,0.70
2019-05-09T15:17:51.717Z,2.50
2019-05-09T15:19:59.961Z,0.57
2019-05-09T15:22:01.175Z,0.98
2019-05-09T15:24:04.836Z,0.82
2019-05-09T15:26:08.502Z,0.70
2019-05-09T15:28:12.144Z,0.60
2019-05-09T15:30:18.464Z,1.02
2019-05-09T15:32:21.514Z,0.90
2019-05-09T15:34:25.111Z,0.88
2019-05-09T15:36:28.812Z,0.80
2019-05-09T15:38:32.450Z,0.70
2019-05-09T15:40:38.503Z,0.80
2019-05-09T15:42:41.398Z,0.90
2019-05-09T15:44:47.519Z,0.70
2019-05-09T15:46:55.621Z,0.70
2019-05-09T15:48:59.385Z,0.80
2019-05-09T15:51:02.967Z,0.68
2019-05-09T15:53:08.403Z,0.80
2019-05-09T15:55:11.994Z,0.80
2019-05-09T15:57:17.565Z,0.80
2019-05-09T15:59:20.997Z,0.75
2019-05-09T16:01:24.596Z,0.80
2019-05-09T16:03:28.161Z,0.72
2019-05-09T16:05:31.997Z,0.80
2019-05-09T16:07:37.494Z,0.80
2019-05-09T16:09:41.029Z,0.60
2019-05-09T16:11:44.697Z,1.32
2019-05-09T16:13:48.346Z,0.60
2019-05-09T16:15:52.013Z,0.53
2019-05-09T16:17:55.675Z,0.70
2019-05-09T16:19:59.254Z,0.30
2019-05-09T16:22:02.837Z,0.82
2019-05-09T16:24:08.077Z,0.60
2019-05-09T16:26:11.721Z,0.65
2019-05-09T16:28:15.302Z,0.60
2019-05-09T16:30:18.958Z,1.20
2019-05-09T16:32:22.545Z,0.60
2019-05-09T16:34:28.210Z,0.60
2019-05-09T16:36:31.495Z,0.62
2019-05-09T16:38:45.230Z,0.50
2019-05-09T16:40:40.558Z,0.50
2019-05-09T16:42:44.242Z,0.50
2019-05-09T16:44:48.230Z,0.42
2019-05-09T16:46:52.007Z,0.55
2019-05-09T16:48:57.958Z,0.30
2019-05-09T16:51:04.332Z,0.53
2019-05-09T16:53:09.006Z,0.50
2019-05-09T16:55:18.053Z,0.40
2019-05-09T16:57:21.813Z,0.40
2019-05-09T16:59:27.922Z,0.40
2019-05-09T17:01:30.768Z,0.65
2019-05-09T17:03:34.361Z,0.50
2019-05-09T17:05:38.003Z,0.90
2019-05-09T17:07:41.592Z,0.50
2019-05-09T17:09:45.479Z,4.00
2019-05-09T17:11:49.058Z,1.40
2019-05-09T17:13:52.661Z,0.47
2019-05-09T17:15:56.334Z,0.40
2019-05-09T17:18:00.009Z,0.50
2019-05-09T17:20:04.080Z,0.50
2019-05-09T17:22:13.104Z,0.50
2019-05-09T17:24:18.156Z,0.40
2019-05-09T17:26:21.748Z,2.98
2019-05-09T17:28:25.344Z,0.47
2019-05-09T17:30:29.207Z,0.47
2019-05-09T17:32:33.067Z,0.57
2019-05-09T17:34:38.095Z,0.40
2019-05-09T17:36:42.061Z,3.27
2019-05-09T17:38:47.669Z,0.50
2019-05-09T17:40:50.945Z,0.80
2019-05-09T17:42:54.605Z,0.50
2019-05-09T17:44:58.253Z,0.60
2019-05-09T17:47:01.910Z,0.42
2019-05-09T17:49:08.092Z,0.47
2019-05-09T17:51:10.872Z,0.75
2019-05-09T17:53:14.481Z,0.50
2019-05-09T17:55:18.355Z,1.00
2019-05-09T17:57:22.241Z,0.50
2019-05-09T17:59:28.934Z,0.42
2019-05-09T18:01:31.353Z,0.30
2019-05-09T18:03:34.985Z,0.40
2019-05-09T18:05:39.092Z,0.47
2019-05-09T18:07:42.921Z,0.57
2019-05-09T18:09:48.371Z,0.50
2019-05-09T18:11:52.029Z,0.55
2019-05-09T18:13:55.701Z,1.00
2019-05-09T18:16:01.148Z,0.70
2019-05-09T18:18:04.843Z,0.57
2019-05-09T18:20:08.423Z,0.50
2019-05-09T18:22:12.124Z,0.53
2019-05-09T18:24:17.618Z,0.40
2019-05-09T18:26:21.131Z,0.60
2019-05-09T18:28:24.785Z,0.40
2019-05-09T18:30:28.366Z,0.50
2019-05-09T18:32:51.112Z,0.70
2019-05-09T18:35:07.974Z,0.40
2019-05-09T18:37:10.703Z,0.50
2019-05-09T18:39:14.352Z,0.50
2019-05-09T18:41:18.068Z,0.60
2019-05-09T18:43:21.761Z,0.50
2019-05-09T18:45:28.071Z,0.60
2019-05-09T18:47:30.789Z,0.78
2019-05-09T18:49:35.668Z,0.40
2019-05-09T18:51:39.361Z,1.05
2019-05-09T18:53:43.024Z,0.80
2019-05-09T18:55:46.659Z,0.55
2019-05-09T18:57:50.356Z,0.57
2019-05-09T18:59:54.035Z,0.50
2019-05-09T19:01:58.629Z,0.30
2019-05-09T19:04:02.229Z,0.60
2019-05-09T19:06:05.894Z,0.40
2019-05-09T19:08:09.955Z,1.02
2019-05-09T19:10:14.029Z,0.55
2019-05-09T19:12:17.682Z,0.72
2019-05-09T19:14:22.275Z,1.02
2019-05-09T19:16:34.156Z,0.80
2019-05-09T19:18:47.865Z,7.37
2019-05-09T19:20:58.724Z,1.87
2019-05-09T19:23:02.379Z,0.85
2019-05-09T19:25:06.102Z,0.65
2019-05-09T19:27:09.716Z,0.55
2019-05-09T19:29:13.375Z,0.60
2019-05-09T19:31:17.064Z,0.70
2019-05-09T19:33:21.358Z,0.70
2019-05-09T19:35:25.677Z,0.50
2019-05-09T19:37:29.897Z,0.60
2019-05-09T19:39:34.086Z,0.60
2019-05-09T19:41:38.697Z,0.90
2019-05-09T19:43:42.963Z,0.60
2019-05-09T19:45:46.673Z,0.80
2019-05-09T19:47:50.332Z,0.70
2019-05-09T19:49:54.017Z,0.82
2019-05-09T19:51:58.214Z,3.37
2019-05-09T19:54:01.850Z,0.75
2019-05-09T19:56:06.109Z,0.82
2019-05-09T19:58:10.280Z,1.20
2019-05-09T20:00:16.822Z,1.25
2019-05-09T20:02:21.011Z,1.00
2019-05-09T20:04:25.359Z,4.30
2019-05-09T20:06:29.566Z,2.02
2019-05-09T20:08:34.387Z,1.47
2019-05-09T20:10:56.777Z,1.77
2019-05-09T20:13:32.169Z,2.10
2019-05-09T20:15:36.474Z,1.25
2019-05-09T20:17:40.774Z,1.65
2019-05-09T20:19:45.167Z,0.82
2019-05-09T20:21:49.363Z,1.00
2019-05-09T20:23:53.576Z,1.00
2019-05-09T20:25:57.953Z,0.90
2019-05-09T20:28:02.772Z,1.02
2019-05-09T20:30:08.599Z,1.37
2019-05-09T20:32:12.887Z,1.10
2019-05-09T20:34:17.188Z,1.00
2019-05-09T20:36:21.460Z,1.30
2019-05-09T20:38:25.853Z,1.20
2019-05-09T20:40:30.282Z,1.60
2019-05-09T20:42:34.741Z,1.20
2019-05-09T20:44:39.123Z,1.22
2019-05-09T20:46:43.472Z,1.30
2019-05-09T20:48:47.909Z,2.50
2019-05-09T20:50:52.332Z,1.32
2019-05-09T20:53:09.162Z,1.10
2019-05-09T20:55:02.849Z,1.10
2019-05-09T20:57:07.203Z,1.00
2019-05-09T20:59:11.574Z,1.30
2019-05-09T21:01:16.091Z,1.10
2019-05-09T21:03:20.554Z,1.00
2019-05-09T21:05:24.913Z,1.12
2019-05-09T21:07:29.352Z,1.70
2019-05-09T21:09:33.696Z,2.77
2019-05-09T21:11:38.141Z,0.93
2019-05-09T21:13:48.541Z,0.90
2019-05-09T21:15:48.788Z,0.98
2019-05-09T21:17:53.244Z,1.00
2019-05-09T21:19:57.602Z,1.00
2019-05-09T21:22:02.224Z,1.00
2019-05-09T21:24:06.581Z,1.07
2019-05-09T21:26:11.051Z,1.20
2019-05-09T21:28:15.424Z,1.82
2019-05-09T21:30:20.799Z,2.30
2019-05-09T21:32:25.234Z,4.22
2019-05-09T21:34:29.606Z,3.90
2019-05-09T21:36:33.856Z,1.50
2019-05-09T21:38:38.017Z,1.25
2019-05-09T21:40:42.184Z,1.40
2019-05-09T21:42:46.404Z,1.15
2019-05-09T21:44:50.588Z,1.40
2019-05-09T21:46:54.831Z,1.40
2019-05-09T21:48:59.074Z,1.50
2019-05-09T21:51:03.265Z,1.57
2019-05-09T21:53:07.412Z,1.30
2019-05-09T21:55:11.699Z,1.60
2019-05-09T21:57:15.886Z,1.40
2019-05-09T21:59:20.113Z,1.35
2019-05-09T22:01:24.858Z,1.50
2019-05-09T22:03:29.007Z,1.40
2019-05-09T22:05:33.179Z,1.60
2019-05-09T22:07:37.327Z,1.60
2019-05-09T22:09:41.483Z,1.70
2019-05-09T22:11:45.735Z,1.57
2019-05-09T22:13:49.972Z,1.47
2019-05-09T22:15:54.224Z,1.50
2019-05-09T22:17:58.408Z,1.65
2019-05-09T22:20:02.885Z,1.50
2019-05-09T22:22:07.129Z,1.60
2019-05-09T22:24:11.302Z,1.60
2019-05-09T22:26:15.501Z,1.60
2019-05-09T22:28:20.317Z,1.60
2019-05-09T22:30:24.591Z,1.57
2019-05-09T22:32:28.985Z,1.45
2019-05-09T22:34:33.405Z,1.60
2019-05-09T22:36:37.659Z,1.45
2019-05-09T22:38:43.724Z,1.80
2019-05-09T22:40:48.066Z,1.65
2019-05-09T22:42:52.316Z,1.40
2019-05-09T22:44:56.525Z,1.42
2019-05-09T22:47:00.671Z,1.40
2019-05-09T22:49:04.949Z,1.50
2019-05-09T22:51:09.140Z,1.40
2019-05-09T22:53:13.406Z,1.40
2019-05-09T22:55:18.066Z,1.40
2019-05-09T22:57:22.261Z,1.50
2019-05-09T22:59:26.488Z,1.50
2019-05-09T23:01:30.758Z,1.50
2019-05-09T23:03:35.048Z,1.50
2019-05-09T23:05:39.286Z,1.40
2019-05-09T23:07:43.516Z,1.50
2019-05-09T23:09:47.738Z,1.40
2019-05-09T23:11:51.907Z,1.25
2019-05-09T23:13:56.150Z,1.60
2019-05-09T23:16:00.303Z,1.45
2019-05-09T23:18:04.552Z,1.70
2019-05-09T23:20:12.217Z,1.37
2019-05-09T23:22:16.706Z,1.50
2019-05-09T23:24:28.434Z,1.40
2019-05-09T23:26:27.307Z,1.60
2019-05-09T23:28:30.972Z,1.70
2019-05-09T23:30:34.638Z,1.30
2019-05-09T23:32:41.559Z,1.40
2019-05-09T23:34:45.184Z,1.70
2019-05-09T23:36:48.769Z,1.52
2019-05-09T23:39:15.450Z,1.65
2019-05-09T23:41:19.042Z,1.67
2019-05-09T23:43:23.049Z,1.50
2019-05-09T23:45:26.654Z,1.60
2019-05-09T23:47:30.291Z,1.30
2019-05-09T23:49:33.935Z,1.50
2019-05-09T23:51:47.554Z,1.60
2019-05-09T23:53:53.308Z,1.82
2019-05-09T23:56:14.914Z,1.50
2019-05-09T23:58:36.245Z,1.60
